createdAt,value
2018-12-13T00:00:52.651Z,0
2018-12-13T00:02:02.628Z,0
2018-12-13T00:03:12.328Z,0
2018-12-13T00:04:22.265Z,0
2018-12-13T00:05:31.960Z,0
2018-12-13T00:06:41.909Z,0
2018-12-13T00:07:51.846Z,0
2018-12-13T00:09:01.793Z,0
2018-12-13T00:10:11.720Z,0
2018-12-13T00:11:21.659Z,0
2018-12-13T00:12:31.603Z,0
2018-12-13T00:13:41.298Z,0
2018-12-13T00:14:50.988Z,0
2018-12-13T00:16:00.683Z,0
2018-12-13T00:17:10.623Z,0
2018-12-13T00:18:20.310Z,0
2018-12-13T00:19:30.234Z,0
2018-12-13T00:20:40.173Z,0
2018-12-13T00:21:50.106Z,0
2018-12-13T00:22:59.802Z,0
2018-12-13T00:24:09.742Z,0
2018-12-13T00:25:19.675Z,0
2018-12-13T00:26:29.365Z,0
2018-12-13T00:27:39.311Z,0
2018-12-13T00:28:49.017Z,0
2018-12-13T00:29:58.956Z,0
2018-12-13T00:31:08.389Z,0
2018-12-13T00:32:18.366Z,0
2018-12-13T00:33:28.311Z,0
2018-12-13T00:34:38.239Z,0
2018-12-13T00:35:48.167Z,0
2018-12-13T00:36:57.855Z,0
2018-12-13T00:38:07.549Z,0
2018-12-13T00:39:17.503Z,0
2018-12-13T00:40:27.447Z,0
2018-12-13T00:41:37.381Z,0
2018-12-13T00:42:47.312Z,0
2018-12-13T00:43:57.256Z,0
2018-12-13T00:45:07.188Z,0
2018-12-13T00:46:17.111Z,0
2018-12-13T00:47:27.107Z,0
2018-12-13T00:48:36.805Z,0
2018-12-13T00:49:46.241Z,0
2018-12-13T00:50:56.172Z,0
2018-12-13T00:52:06.120Z,0
2018-12-13T00:53:16.055Z,0
2018-12-13T00:54:26.044Z,0
2018-12-13T00:55:35.983Z,0
2018-12-13T00:56:45.917Z,0
2018-12-13T00:57:55.114Z,0
2018-12-13T00:59:04.805Z,0
2018-12-13T01:00:14.563Z,0
2018-12-13T01:01:24.259Z,0
2018-12-13T01:02:34.213Z,0
2018-12-13T01:03:44.147Z,0
2018-12-13T01:04:54.079Z,0
2018-12-13T01:06:04.026Z,0
2018-12-13T01:07:13.711Z,0
2018-12-13T01:08:23.384Z,0
2018-12-13T01:09:33.350Z,0
2018-12-13T01:10:43.852Z,0
2018-12-13T01:11:53.800Z,0
2018-12-13T01:13:03.474Z,0
2018-12-13T01:14:13.407Z,0
2018-12-13T01:15:23.355Z,0
2018-12-13T01:16:33.297Z,0
2018-12-13T01:17:42.983Z,0
2018-12-13T01:18:52.923Z,0
2018-12-13T01:20:02.358Z,0
2018-12-13T01:21:12.325Z,0
2018-12-13T01:22:27.872Z,0
2018-12-13T01:23:37.547Z,0
2018-12-13T01:24:47.484Z,0
2018-12-13T01:25:57.182Z,0
2018-12-13T01:27:07.117Z,0
2018-12-13T01:28:16.808Z,0
2018-12-13T01:29:26.752Z,0
2018-12-13T01:30:36.681Z,0
2018-12-13T01:31:46.368Z,0
2018-12-13T01:32:56.052Z,0
2018-12-13T01:34:05.737Z,0
2018-12-13T01:35:15.426Z,0
2018-12-13T01:36:25.121Z,0
2018-12-13T01:37:35.065Z,0
2018-12-13T01:38:45.014Z,0
2018-12-13T01:39:54.702Z,0
2018-12-13T01:41:04.139Z,0
2018-12-13T01:42:14.077Z,0
2018-12-13T01:43:23.768Z,0
2018-12-13T01:44:33.457Z,0
2018-12-13T01:45:43.391Z,0
2018-12-13T01:46:53.328Z,0
2018-12-13T01:48:03.270Z,0
2018-12-13T01:49:13.209Z,0
2018-12-13T01:50:22.898Z,0
2018-12-13T01:51:32.835Z,0
2018-12-13T01:52:42.782Z,0
2018-12-13T01:53:52.721Z,0
2018-12-13T01:55:02.664Z,0
2018-12-13T01:56:12.604Z,0
2018-12-13T01:57:22.097Z,0
2018-12-13T01:58:32.036Z,0
2018-12-13T01:59:41.989Z,0
2018-12-13T02:00:51.916Z,0
2018-12-13T02:02:01.867Z,0
2018-12-13T02:03:11.814Z,0
2018-12-13T02:04:21.746Z,0
2018-12-13T02:05:31.425Z,0
2018-12-13T02:06:41.364Z,0
2018-12-13T02:07:51.292Z,0
2018-12-13T02:09:00.719Z,0
2018-12-13T02:10:10.655Z,0
2018-12-13T02:11:20.340Z,0
2018-12-13T02:12:30.284Z,0
2018-12-13T02:13:39.714Z,0
2018-12-13T02:14:49.394Z,0
2018-12-13T02:15:59.079Z,0
2018-12-13T02:17:08.751Z,0
2018-12-13T02:18:18.703Z,0
2018-12-13T02:19:28.393Z,0
2018-12-13T02:20:38.344Z,0
2018-12-13T02:21:48.288Z,0
2018-12-13T02:22:58.237Z,0
2018-12-13T02:24:08.245Z,0
2018-12-13T02:25:18.182Z,0
2018-12-13T02:26:28.113Z,0
2018-12-13T02:27:38.053Z,0
2018-12-13T02:28:47.241Z,0
2018-12-13T02:29:56.918Z,0
2018-12-13T02:31:06.672Z,0
2018-12-13T02:32:16.376Z,0
2018-12-13T02:33:26.323Z,0
2018-12-13T02:34:36.287Z,0
2018-12-13T02:35:46.224Z,0
2018-12-13T02:36:56.174Z,0
2018-12-13T02:38:13.609Z,0
2018-12-13T02:39:23.560Z,0
2018-12-13T02:40:33.512Z,0
2018-12-13T02:41:43.455Z,0
2018-12-13T02:42:53.400Z,0
2018-12-13T02:44:03.352Z,0
2018-12-13T02:45:12.785Z,0
2018-12-13T02:46:22.494Z,0
2018-12-13T02:47:32.168Z,0
2018-12-13T02:48:41.853Z,0
2018-12-13T02:49:51.554Z,0
2018-12-13T02:51:01.248Z,0
2018-12-13T02:52:10.966Z,0
2018-12-13T02:53:20.408Z,0
2018-12-13T02:54:30.353Z,0
2018-12-13T02:55:40.294Z,0
2018-12-13T02:56:50.222Z,0
2018-12-13T02:58:00.166Z,0
2018-12-13T02:59:10.136Z,0
2018-12-13T03:00:20.081Z,0
2018-12-13T03:01:29.765Z,0
2018-12-13T03:02:39.722Z,0
2018-12-13T03:03:49.676Z,0
2018-12-13T03:04:59.379Z,0
2018-12-13T03:06:09.328Z,0
2018-12-13T03:07:21.197Z,0
2018-12-13T03:08:31.141Z,0
2018-12-13T03:09:40.834Z,0
2018-12-13T03:10:50.769Z,0
2018-12-13T03:12:00.704Z,0
2018-12-13T03:13:10.141Z,0
2018-12-13T03:14:20.095Z,0
2018-12-13T03:15:30.049Z,0
2018-12-13T03:16:39.752Z,0
2018-12-13T03:17:49.704Z,0
2018-12-13T03:18:59.648Z,0
2018-12-13T03:20:09.597Z,0
2018-12-13T03:21:19.288Z,0
2018-12-13T03:22:29.244Z,0
2018-12-13T03:23:39.176Z,0
2018-12-13T03:24:48.877Z,0
2018-12-13T03:25:58.556Z,0
2018-12-13T03:27:08.038Z,0
2018-12-13T03:28:18.009Z,0
2018-12-13T03:29:27.452Z,0
2018-12-13T03:30:37.411Z,0
2018-12-13T03:31:47.120Z,0
2018-12-13T03:32:57.105Z,0
2018-12-13T03:34:07.075Z,0
2018-12-13T03:35:16.502Z,0
2018-12-13T03:36:26.193Z,0
2018-12-13T03:37:36.159Z,0
2018-12-13T03:38:46.109Z,0
2018-12-13T03:39:55.806Z,0
2018-12-13T03:41:05.773Z,0
2018-12-13T03:42:15.471Z,0
2018-12-13T03:43:24.912Z,0
2018-12-13T03:44:34.365Z,0
2018-12-13T03:45:44.302Z,0
2018-12-13T03:46:54.234Z,0
2018-12-13T03:48:04.163Z,0
2018-12-13T03:49:13.907Z,0
2018-12-13T03:50:23.854Z,0
2018-12-13T03:51:33.780Z,0
2018-12-13T03:52:43.742Z,0
2018-12-13T03:53:53.427Z,0
2018-12-13T03:55:03.111Z,0
2018-12-13T03:56:13.074Z,0
2018-12-13T03:57:23.020Z,0
2018-12-13T03:58:32.720Z,0
2018-12-13T03:59:42.167Z,0
2018-12-13T04:00:52.097Z,0
2018-12-13T04:02:01.776Z,0
2018-12-13T04:03:11.718Z,0
2018-12-13T04:04:21.400Z,0
2018-12-13T04:05:31.091Z,0
2018-12-13T04:06:40.779Z,0
2018-12-13T04:07:50.708Z,0
2018-12-13T04:09:00.141Z,0
2018-12-13T04:10:09.817Z,0
2018-12-13T04:11:19.820Z,0
2018-12-13T04:12:29.776Z,0
2018-12-13T04:13:39.737Z,0
2018-12-13T04:14:49.182Z,0
2018-12-13T04:15:59.119Z,0
2018-12-13T04:17:08.566Z,0
2018-12-13T04:18:18.497Z,0
2018-12-13T04:19:28.438Z,0
2018-12-13T04:20:38.133Z,0
2018-12-13T04:21:47.825Z,0
2018-12-13T04:22:57.511Z,0
2018-12-13T04:24:07.222Z,0
2018-12-13T04:25:16.930Z,0
2018-12-13T04:26:26.865Z,0
2018-12-13T04:27:36.810Z,0
2018-12-13T04:28:46.749Z,0
2018-12-13T04:29:56.433Z,0
2018-12-13T04:31:06.370Z,0
2018-12-13T04:32:16.061Z,0
2018-12-13T04:33:26.015Z,0
2018-12-13T04:34:35.946Z,0
2018-12-13T04:35:45.402Z,0
2018-12-13T04:36:55.096Z,0
2018-12-13T04:38:05.021Z,0
2018-12-13T04:39:15.016Z,0
2018-12-13T04:40:24.964Z,0
2018-12-13T04:41:34.888Z,0
2018-12-13T04:42:44.584Z,0
2018-12-13T04:43:54.312Z,0
2018-12-13T04:45:03.746Z,0
2018-12-13T04:46:13.444Z,0
2018-12-13T04:47:23.411Z,0
2018-12-13T04:48:33.371Z,0
2018-12-13T04:49:43.317Z,0
2018-12-13T04:50:53.261Z,0
2018-12-13T04:52:02.985Z,0
2018-12-13T04:53:12.934Z,0
2018-12-13T04:54:22.880Z,0
2018-12-13T04:55:32.568Z,0
2018-12-13T04:56:42.503Z,0
2018-12-13T04:57:52.436Z,0
2018-12-13T04:59:02.360Z,0
2018-12-13T05:00:12.307Z,0
2018-12-13T05:01:22.236Z,0
2018-12-13T05:02:32.180Z,0
2018-12-13T05:03:42.121Z,0
2018-12-13T05:13:13.264Z,0
2018-12-13T05:14:22.934Z,0
2018-12-13T05:15:32.872Z,0
2018-12-13T05:16:42.814Z,0
2018-12-13T05:17:52.566Z,0
2018-12-13T05:19:02.502Z,0
2018-12-13T05:20:12.450Z,0
2018-12-13T05:21:22.256Z,0
2018-12-13T05:22:32.173Z,0
2018-12-13T05:23:42.105Z,0
2018-12-13T05:24:51.787Z,0
2018-12-13T05:26:01.486Z,0
2018-12-13T05:27:11.417Z,0
2018-12-13T05:28:21.096Z,0
2018-12-13T05:29:30.580Z,0
2018-12-13T05:30:40.519Z,0
2018-12-13T05:31:50.203Z,0
2018-12-13T05:32:59.893Z,0
2018-12-13T05:34:09.333Z,0
2018-12-13T05:35:19.268Z,0
2018-12-13T05:36:28.970Z,0
2018-12-13T05:37:38.656Z,0
2018-12-13T05:38:48.342Z,0
2018-12-13T05:39:57.773Z,0
2018-12-13T05:41:07.447Z,0
2018-12-13T05:42:17.449Z,0
2018-12-13T05:43:28.339Z,0
2018-12-13T05:44:38.282Z,0
2018-12-13T05:45:48.234Z,0
2018-12-13T05:46:58.170Z,0
2018-12-13T05:48:07.864Z,0
2018-12-13T05:49:17.860Z,0
2018-12-13T05:50:27.791Z,0
2018-12-13T05:51:37.737Z,0
2018-12-13T05:52:47.706Z,0
2018-12-13T05:53:57.395Z,0
2018-12-13T05:55:08.508Z,0
2018-12-13T05:56:18.548Z,0
2018-12-13T05:57:28.486Z,0
2018-12-13T05:58:38.422Z,0
2018-12-13T05:59:48.116Z,0
2018-12-13T06:00:59.305Z,0
2018-12-13T06:02:09.252Z,0
2018-12-13T06:03:18.701Z,0
2018-12-13T06:04:28.648Z,0
2018-12-13T06:05:38.588Z,0
2018-12-13T06:06:48.526Z,0
2018-12-13T06:08:02.204Z,0
2018-12-13T06:09:12.156Z,0
2018-12-13T06:10:21.886Z,0
2018-12-13T06:11:31.841Z,0
2018-12-13T06:12:41.544Z,0
2018-12-13T06:13:51.509Z,0
2018-12-13T06:15:01.465Z,0
2018-12-13T06:16:11.165Z,0
2018-12-13T06:17:21.109Z,0
2018-12-13T06:18:30.797Z,0
2018-12-13T06:19:40.492Z,0
2018-12-13T06:20:50.180Z,0
2018-12-13T06:21:59.890Z,0
2018-12-13T06:23:09.844Z,0
2018-12-13T06:24:19.832Z,0
2018-12-13T06:25:29.782Z,0
2018-12-13T06:26:39.511Z,0
2018-12-13T06:27:49.264Z,0
2018-12-13T06:28:59.212Z,0
2018-12-13T06:30:14.716Z,4
2018-12-13T06:31:24.650Z,4
2018-12-13T06:32:34.590Z,0
2018-12-13T06:33:44.285Z,4
2018-12-13T06:34:54.040Z,4
2018-12-13T06:36:03.476Z,4
2018-12-13T06:37:13.422Z,4
2018-12-13T06:38:23.356Z,8
2018-12-13T06:39:33.049Z,8
2018-12-13T06:40:42.742Z,8
2018-12-13T06:41:52.966Z,12
2018-12-13T06:43:02.923Z,12
2018-12-13T06:44:12.893Z,16
2018-12-13T06:45:22.592Z,16
2018-12-13T06:46:32.283Z,20
2018-12-13T06:47:42.215Z,20
2018-12-13T06:48:51.910Z,28
2018-12-13T06:50:01.594Z,32
2018-12-13T06:51:11.284Z,36
2018-12-13T06:52:20.739Z,44
2018-12-13T06:53:30.747Z,52
2018-12-13T06:54:40.704Z,56
2018-12-13T06:55:50.405Z,64
2018-12-13T06:57:00.644Z,72
2018-12-13T06:58:10.684Z,84
2018-12-13T06:59:20.628Z,92
2018-12-13T07:00:30.572Z,96
2018-12-13T07:01:40.282Z,108
2018-12-13T07:02:50.231Z,124
2018-12-13T07:03:59.922Z,140
2018-12-13T07:05:09.366Z,156
2018-12-13T07:06:19.058Z,156
2018-12-13T07:07:29.022Z,168
2018-12-13T07:08:38.983Z,172
2018-12-13T07:09:48.723Z,204
2018-12-13T07:10:58.696Z,248
2018-12-13T07:12:08.646Z,296
2018-12-13T07:13:18.330Z,344
2018-12-13T07:14:28.263Z,388
2018-12-13T07:15:38.206Z,424
2018-12-13T07:16:48.165Z,460
2018-12-13T07:17:58.102Z,492
2018-12-13T07:19:07.382Z,524
2018-12-13T07:20:17.353Z,552
2018-12-13T07:21:27.507Z,576
2018-12-13T07:22:37.200Z,600
2018-12-13T07:23:47.158Z,620
2018-12-13T07:24:57.098Z,628
2018-12-13T07:26:07.056Z,592
2018-12-13T07:27:17.012Z,532
2018-12-13T07:28:26.984Z,424
2018-12-13T07:29:36.941Z,348
2018-12-13T07:30:46.632Z,348
2018-12-13T07:31:56.058Z,396
2018-12-13T07:33:05.986Z,528
2018-12-13T07:34:15.672Z,512
2018-12-13T07:35:24.868Z,480
2018-12-13T07:36:34.815Z,484
2018-12-13T07:37:44.514Z,472
2018-12-13T07:38:54.489Z,460
2018-12-13T07:40:05.618Z,452
2018-12-13T07:41:15.310Z,576
2018-12-13T07:42:25.004Z,596
2018-12-13T07:43:34.703Z,556
2018-12-13T07:44:44.386Z,576
2018-12-13T07:45:54.319Z,624
2018-12-13T07:47:04.248Z,644
2018-12-13T07:48:13.939Z,664
2018-12-13T07:49:23.638Z,696
2018-12-13T07:50:33.088Z,704
2018-12-13T07:51:42.788Z,728
2018-12-13T07:52:52.476Z,832
2018-12-13T07:54:02.172Z,916
2018-12-13T07:55:12.115Z,864
2018-12-13T07:56:22.298Z,908
2018-12-13T07:57:32.251Z,1000
2018-12-13T07:58:41.999Z,968
2018-12-13T07:59:51.940Z,904
2018-12-13T08:01:01.649Z,836
2018-12-13T08:02:11.614Z,864
2018-12-13T08:03:21.353Z,944
2018-12-13T08:04:31.056Z,944
2018-12-13T08:05:40.781Z,968
2018-12-13T08:06:50.764Z,1008
2018-12-13T08:08:00.488Z,1076
2018-12-13T08:09:10.188Z,1148
2018-12-13T08:10:19.862Z,1384
2018-12-13T08:11:29.795Z,1628
2018-12-13T08:12:39.742Z,1644
2018-12-13T08:13:49.694Z,1596
2018-12-13T08:14:59.637Z,1492
2018-12-13T08:16:09.599Z,1528
2018-12-13T08:17:19.530Z,1620
2018-12-13T08:18:29.221Z,1644
2018-12-13T08:19:39.175Z,2044
2018-12-13T08:20:49.140Z,2332
2018-12-13T08:21:58.848Z,2720
2018-12-13T08:23:08.680Z,3196
2018-12-13T08:24:18.672Z,3488
2018-12-13T08:25:28.612Z,3696
2018-12-13T08:26:38.315Z,3812
2018-12-13T08:27:48.252Z,3760
2018-12-13T08:28:58.441Z,3588
2018-12-13T08:30:08.372Z,3420
2018-12-13T08:31:18.346Z,3116
2018-12-13T08:32:28.032Z,2964
2018-12-13T08:33:37.896Z,3160
2018-12-13T08:34:47.835Z,3372
2018-12-13T08:35:57.762Z,3460
2018-12-13T08:37:07.706Z,3340
2018-12-13T08:38:17.428Z,3296
2018-12-13T08:39:27.373Z,3336
2018-12-13T08:40:37.080Z,3400
2018-12-13T08:41:47.018Z,3508
2018-12-13T08:42:56.959Z,3652
2018-12-13T08:44:06.663Z,3420
2018-12-13T08:45:16.120Z,3372
2018-12-13T08:46:26.080Z,3448
2018-12-13T08:47:35.598Z,3192
2018-12-13T08:48:45.572Z,2968
2018-12-13T08:49:55.293Z,2672
2018-12-13T08:51:04.999Z,2524
2018-12-13T08:52:14.945Z,2632
2018-12-13T08:53:24.944Z,2408
2018-12-13T08:54:34.930Z,2608
2018-12-13T08:55:44.634Z,2764
2018-12-13T08:56:54.350Z,2664
2018-12-13T08:58:04.061Z,2660
2018-12-13T08:59:14.027Z,2812
2018-12-13T09:00:23.566Z,3052
2018-12-13T09:01:33.505Z,3248
2018-12-13T09:02:43.529Z,2964
2018-12-13T09:03:53.481Z,2820
2018-12-13T09:05:03.425Z,3092
2018-12-13T09:06:13.387Z,3356
2018-12-13T09:07:23.387Z,3696
2018-12-13T09:08:38.489Z,3580
2018-12-13T09:09:48.489Z,3568
2018-12-13T09:10:58.197Z,3168
2018-12-13T09:12:08.191Z,3204
2018-12-13T09:13:17.884Z,3816
2018-12-13T09:14:27.601Z,4264
2018-12-13T09:15:37.581Z,3916
2018-12-13T09:16:47.285Z,3632
2018-12-13T09:17:57.237Z,3768
2018-12-13T09:19:06.937Z,4540
2018-12-13T09:20:16.935Z,4668
2018-12-13T09:21:26.631Z,4188
2018-12-13T09:22:36.589Z,4600
2018-12-13T09:23:46.533Z,4792
2018-12-13T09:24:56.513Z,5056
2018-12-13T09:26:06.249Z,4880
2018-12-13T09:27:16.770Z,4440
2018-12-13T09:28:26.795Z,4508
2018-12-13T09:29:36.749Z,4272
2018-12-13T09:30:46.688Z,3680
2018-12-13T09:31:56.135Z,3468
2018-12-13T09:33:06.106Z,3320
2018-12-13T09:34:16.059Z,3412
2018-12-13T09:35:25.337Z,3512
2018-12-13T09:36:35.318Z,3736
2018-12-13T09:37:50.081Z,3908
2018-12-13T09:39:00.045Z,3704
2018-12-13T09:40:10.013Z,3800
2018-12-13T09:41:19.460Z,3628
2018-12-13T09:42:29.440Z,3372
2018-12-13T09:43:38.893Z,3568
2018-12-13T09:44:48.629Z,3724
2018-12-13T09:45:58.572Z,3652
2018-12-13T09:47:08.718Z,3424
2018-12-13T09:48:18.741Z,3604
2018-12-13T09:49:28.707Z,3732
2018-12-13T09:50:38.666Z,4008
2018-12-13T09:51:48.376Z,4080
2018-12-13T09:52:58.332Z,4160
2018-12-13T09:54:08.510Z,4520
2018-12-13T09:55:18.304Z,4576
2018-12-13T09:56:28.250Z,4472
2018-12-13T09:57:37.956Z,4720
2018-12-13T09:58:47.988Z,5104
2018-12-13T09:59:57.700Z,5220
2018-12-13T10:01:07.397Z,5116
2018-12-13T10:02:17.344Z,4904
2018-12-13T10:03:27.052Z,5392
2018-12-13T10:04:36.781Z,5888
2018-12-13T10:05:46.230Z,5336
2018-12-13T10:06:55.972Z,4204
2018-12-13T10:08:05.949Z,4260
2018-12-13T10:09:15.691Z,4244
2018-12-13T10:10:25.762Z,3792
2018-12-13T10:11:35.718Z,3512
2018-12-13T10:12:45.425Z,3656
2018-12-13T10:13:55.405Z,4152
2018-12-13T10:15:05.106Z,4140
2018-12-13T10:16:15.044Z,3604
2018-12-13T10:17:24.772Z,3528
2018-12-13T10:18:34.744Z,3660
2018-12-13T10:19:44.686Z,3420
2018-12-13T10:20:54.383Z,4104
2018-12-13T10:22:04.336Z,4824
2018-12-13T10:23:19.080Z,4908
2018-12-13T10:24:29.046Z,4848
2018-12-13T10:25:39.285Z,5012
2018-12-13T10:26:49.229Z,5352
2018-12-13T10:27:58.684Z,5556
2018-12-13T10:29:08.385Z,5760
2018-12-13T10:30:18.321Z,6160
2018-12-13T10:31:27.764Z,6652
2018-12-13T10:32:37.696Z,6628
2018-12-13T10:33:47.634Z,6448
2018-12-13T10:34:58.120Z,6404
2018-12-13T10:36:08.083Z,5736
2018-12-13T10:37:18.071Z,5128
2018-12-13T10:38:28.023Z,5268
2018-12-13T10:39:37.986Z,5156
2018-12-13T10:40:47.687Z,5160
2018-12-13T10:41:57.685Z,5428
2018-12-13T10:43:07.713Z,6224
2018-12-13T10:44:17.766Z,5956
2018-12-13T10:45:27.546Z,5072
2018-12-13T10:46:37.504Z,4584
2018-12-13T10:47:47.488Z,4748
2018-12-13T10:48:57.459Z,5084
2018-12-13T10:50:07.172Z,5888
2018-12-13T10:51:17.113Z,6280
2018-12-13T10:52:27.188Z,6104
2018-12-13T10:53:37.143Z,6556
2018-12-13T10:54:46.843Z,6120
2018-12-13T10:55:56.586Z,5664
2018-12-13T10:57:06.295Z,5564
2018-12-13T10:58:15.739Z,5560
2018-12-13T10:59:25.742Z,5184
2018-12-13T11:00:35.477Z,4904
2018-12-13T11:01:45.277Z,4628
2018-12-13T11:02:55.268Z,4728
2018-12-13T11:04:05.008Z,4628
2018-12-13T11:05:14.952Z,4800
2018-12-13T11:06:24.412Z,5076
2018-12-13T11:07:34.108Z,4536
2018-12-13T11:08:43.796Z,3760
2018-12-13T11:09:53.522Z,4216
2018-12-13T11:11:02.780Z,4164
2018-12-13T11:12:12.235Z,3732
2018-12-13T11:13:21.916Z,3212
2018-12-13T11:14:31.613Z,2912
2018-12-13T11:15:42.341Z,2744
2018-12-13T11:16:52.365Z,2776
2018-12-13T11:18:02.297Z,2908
2018-12-13T11:19:12.731Z,2816
2018-12-13T11:20:22.429Z,2608
2018-12-13T11:21:32.382Z,2564
2018-12-13T11:22:41.848Z,2492
2018-12-13T11:23:51.965Z,2448
2018-12-13T11:25:01.907Z,2428
2018-12-13T11:26:11.593Z,2356
2018-12-13T11:27:21.531Z,2224
2018-12-13T11:28:31.493Z,2116
2018-12-13T11:29:41.253Z,2128
2018-12-13T11:30:51.200Z,2076
2018-12-13T11:32:00.910Z,2132
2018-12-13T11:33:10.852Z,2192
2018-12-13T11:34:20.300Z,2108
2018-12-13T11:35:30.009Z,2056
2018-12-13T11:36:40.036Z,2116
2018-12-13T11:37:50.001Z,2176
2018-12-13T11:39:05.483Z,2252
2018-12-13T11:40:15.643Z,2324
2018-12-13T11:41:25.602Z,2280
2018-12-13T11:42:35.546Z,2192
2018-12-13T11:43:45.495Z,2076
2018-12-13T11:44:55.500Z,1900
2018-12-13T11:46:05.213Z,1800
2018-12-13T11:47:15.162Z,1800
2018-12-13T11:48:25.103Z,1832
2018-12-13T11:49:34.793Z,1924
2018-12-13T11:50:44.737Z,1940
2018-12-13T11:51:54.674Z,1916
2018-12-13T11:53:04.642Z,2020
2018-12-13T11:54:14.099Z,2120
2018-12-13T11:55:23.566Z,2020
2018-12-13T11:56:33.032Z,2060
2018-12-13T11:57:42.981Z,2184
2018-12-13T11:58:53.675Z,2144
2018-12-13T12:00:03.622Z,2204
2018-12-13T12:01:13.570Z,2132
2018-12-13T12:02:28.841Z,2060
2018-12-13T12:03:38.786Z,2144
2018-12-13T12:04:48.741Z,2300
2018-12-13T12:05:58.196Z,2240
2018-12-13T12:07:08.147Z,2156
2018-12-13T12:08:18.092Z,2312
2018-12-13T12:09:27.792Z,2280
2018-12-13T12:10:37.481Z,2332
2018-12-13T12:11:47.438Z,2308
2018-12-13T12:12:57.335Z,2064
2018-12-13T12:14:07.025Z,2192
2018-12-13T12:15:16.484Z,2504
2018-12-13T12:16:26.418Z,2300
2018-12-13T12:17:36.133Z,2200
2018-12-13T12:18:46.070Z,2552
2018-12-13T12:19:56.037Z,2732
2018-12-13T12:21:05.747Z,2276
2018-12-13T12:22:15.711Z,2052
2018-12-13T12:23:25.661Z,2268
2018-12-13T12:24:35.612Z,2464
2018-12-13T12:25:45.339Z,2080
2018-12-13T12:26:55.051Z,1764
2018-12-13T12:28:05.026Z,1892
2018-12-13T12:29:14.716Z,1908
2018-12-13T12:30:24.667Z,1824
2018-12-13T12:31:35.277Z,1756
2018-12-13T12:32:44.991Z,1812
2018-12-13T12:33:54.947Z,1696
2018-12-13T12:35:04.900Z,1552
2018-12-13T12:36:14.855Z,1408
2018-12-13T12:37:24.621Z,1408
2018-12-13T12:38:34.521Z,1392
2018-12-13T12:39:44.211Z,1452
2018-12-13T12:40:53.924Z,1508
2018-12-13T12:42:04.516Z,1476
2018-12-13T12:43:14.464Z,1548
2018-12-13T12:44:24.196Z,1460
2018-12-13T12:45:34.130Z,1312
2018-12-13T12:46:43.589Z,1296
2018-12-13T12:47:53.537Z,1328
2018-12-13T12:49:03.235Z,1264
2018-12-13T12:50:12.681Z,1276
2018-12-13T12:51:22.634Z,1296
2018-12-13T12:52:32.588Z,1296
2018-12-13T12:53:42.281Z,1228
2018-12-13T12:54:52.224Z,1404
2018-12-13T12:56:02.021Z,1400
2018-12-13T12:57:11.780Z,1384
2018-12-13T12:58:21.729Z,1256
2018-12-13T12:59:31.683Z,1256
2018-12-13T13:00:41.372Z,1216
2018-12-13T13:01:51.079Z,1068
2018-12-13T13:03:01.039Z,1004
2018-12-13T13:04:10.991Z,1000
2018-12-13T13:05:20.943Z,1000
2018-12-13T13:06:30.390Z,992
2018-12-13T13:07:40.072Z,1012
2018-12-13T13:08:50.030Z,1044
2018-12-13T13:09:59.732Z,1000
2018-12-13T13:11:09.709Z,1016
2018-12-13T13:12:19.161Z,984
2018-12-13T13:13:30.487Z,912
2018-12-13T13:14:40.520Z,868
2018-12-13T13:15:50.454Z,824
2018-12-13T13:17:00.150Z,820
2018-12-13T13:18:09.339Z,788
2018-12-13T13:19:18.789Z,760
2018-12-13T13:20:28.745Z,728
2018-12-13T13:21:38.211Z,700
2018-12-13T13:22:47.905Z,700
2018-12-13T13:23:57.584Z,704
2018-12-13T13:25:07.541Z,700
2018-12-13T13:26:17.245Z,696
2018-12-13T13:27:26.924Z,700
2018-12-13T13:28:36.602Z,668
2018-12-13T13:29:46.303Z,664
2018-12-13T13:30:56.007Z,628
2018-12-13T13:32:06.026Z,688
2018-12-13T13:33:15.983Z,740
2018-12-13T13:34:25.680Z,776
2018-12-13T13:35:35.413Z,876
2018-12-13T13:36:44.860Z,768
2018-12-13T13:37:54.815Z,780
2018-12-13T13:39:04.767Z,692
2018-12-13T13:40:14.456Z,640
2018-12-13T13:41:24.160Z,760
2018-12-13T13:42:34.197Z,780
2018-12-13T13:43:44.146Z,804
2018-12-13T13:44:54.103Z,796
2018-12-13T13:46:03.823Z,756
2018-12-13T13:47:13.787Z,792
2018-12-13T13:48:23.739Z,848
2018-12-13T13:49:33.678Z,776
2018-12-13T13:50:43.615Z,852
2018-12-13T13:51:53.600Z,904
2018-12-13T13:53:03.283Z,904
2018-12-13T13:54:13.003Z,984
2018-12-13T13:55:22.932Z,1136
2018-12-13T13:56:32.381Z,1216
2018-12-13T13:57:42.339Z,1260
2018-12-13T13:58:51.828Z,1252
2018-12-13T14:00:01.513Z,1300
2018-12-13T14:01:11.530Z,1220
2018-12-13T14:02:21.557Z,1064
2018-12-13T14:03:31.561Z,1008
2018-12-13T14:04:41.522Z,1000
2018-12-13T14:05:51.219Z,996
2018-12-13T14:07:02.414Z,924
2018-12-13T14:08:12.120Z,872
2018-12-13T14:09:22.051Z,872
2018-12-13T14:10:31.999Z,812
2018-12-13T14:11:41.947Z,688
2018-12-13T14:12:51.979Z,644
2018-12-13T14:14:01.427Z,652
2018-12-13T14:15:11.392Z,640
2018-12-13T14:16:21.337Z,628
2018-12-13T14:17:31.281Z,604
2018-12-13T14:18:41.031Z,560
2018-12-13T14:19:50.716Z,508
2018-12-13T14:21:00.648Z,456
2018-12-13T14:22:10.605Z,424
2018-12-13T14:23:20.575Z,420
2018-12-13T14:24:30.574Z,416
2018-12-13T14:25:40.533Z,396
2018-12-13T14:26:50.252Z,364
2018-12-13T14:27:59.686Z,328
2018-12-13T14:29:09.649Z,284
2018-12-13T14:30:19.346Z,260
2018-12-13T14:31:29.295Z,296
2018-12-13T14:32:38.997Z,364
2018-12-13T14:33:48.701Z,448
2018-12-13T14:35:04.191Z,516
2018-12-13T14:36:13.881Z,512
2018-12-13T14:37:23.823Z,456
2018-12-13T14:38:33.762Z,388
2018-12-13T14:39:49.048Z,332
2018-12-13T14:40:59.051Z,288
2018-12-13T14:42:10.085Z,244
2018-12-13T14:43:20.019Z,196
2018-12-13T14:44:29.477Z,176
2018-12-13T14:45:38.911Z,188
2018-12-13T14:46:48.910Z,208
2018-12-13T14:47:58.862Z,196
2018-12-13T14:49:08.806Z,180
2018-12-13T14:50:18.498Z,168
2018-12-13T14:51:28.439Z,164
2018-12-13T14:52:37.868Z,160
2018-12-13T14:53:47.576Z,152
2018-12-13T14:54:58.343Z,144
2018-12-13T14:56:08.365Z,132
2018-12-13T14:57:18.321Z,116
2018-12-13T14:58:28.027Z,100
2018-12-13T14:59:37.979Z,88
2018-12-13T15:00:54.670Z,80
2018-12-13T15:02:04.620Z,72
2018-12-13T15:03:14.555Z,60
2018-12-13T15:04:24.240Z,52
2018-12-13T15:05:34.219Z,44
2018-12-13T15:06:44.191Z,40
2018-12-13T15:07:54.125Z,36
2018-12-13T15:09:03.842Z,32
2018-12-13T15:10:13.791Z,24
2018-12-13T15:11:23.542Z,20
2018-12-13T15:12:33.494Z,16
2018-12-13T15:13:43.459Z,16
2018-12-13T15:14:53.407Z,12
2018-12-13T15:16:03.361Z,12
2018-12-13T15:17:13.057Z,12
2018-12-13T15:18:22.946Z,8
2018-12-13T15:19:32.892Z,8
2018-12-13T15:20:42.601Z,4
2018-12-13T15:21:52.544Z,8
2018-12-13T15:23:02.249Z,4
2018-12-13T15:24:11.960Z,4
2018-12-13T15:25:22.925Z,0
2018-12-13T15:26:32.615Z,4
2018-12-13T15:27:42.578Z,0
2018-12-13T15:28:52.329Z,4
2018-12-13T15:30:02.031Z,4
2018-12-13T15:31:11.994Z,0
2018-12-13T15:32:21.956Z,0
2018-12-13T15:33:31.636Z,0
2018-12-13T15:34:41.343Z,0
2018-12-13T15:35:51.298Z,0
2018-12-13T15:37:01.238Z,0
2018-12-13T15:38:11.176Z,0
2018-12-13T15:39:20.376Z,0
2018-12-13T15:40:30.083Z,0
2018-12-13T15:41:40.029Z,0
2018-12-13T15:42:49.972Z,0
2018-12-13T15:43:59.662Z,0
2018-12-13T15:45:09.134Z,0
2018-12-13T15:46:19.101Z,0
2018-12-13T15:47:29.053Z,0
2018-12-13T15:48:38.495Z,0
2018-12-13T15:49:47.923Z,0
2018-12-13T15:50:57.865Z,0
2018-12-13T15:52:07.302Z,0
2018-12-13T15:53:17.254Z,0
2018-12-13T15:54:26.942Z,0
2018-12-13T15:55:36.639Z,0
2018-12-13T15:56:46.093Z,0
2018-12-13T15:57:55.795Z,0
2018-12-13T15:59:05.733Z,0
2018-12-13T16:00:15.193Z,0
2018-12-13T16:01:25.155Z,0
2018-12-13T16:02:35.084Z,0
2018-12-13T16:03:44.769Z,0
2018-12-13T16:04:54.219Z,0
2018-12-13T16:06:04.175Z,0
2018-12-13T16:07:14.112Z,0
2018-12-13T16:08:23.816Z,0
2018-12-13T16:09:33.747Z,0
2018-12-13T16:10:45.062Z,0
2018-12-13T16:11:54.999Z,0
2018-12-13T16:13:04.949Z,0
2018-12-13T16:14:14.898Z,0
2018-12-13T16:15:24.594Z,0
2018-12-13T16:16:34.294Z,0
2018-12-13T16:17:44.241Z,0
2018-12-13T16:18:53.678Z,0
2018-12-13T16:20:03.637Z,0
2018-12-13T16:21:13.591Z,0
2018-12-13T16:22:23.534Z,0
2018-12-13T16:23:33.474Z,0
2018-12-13T16:24:43.411Z,0
2018-12-13T16:25:53.098Z,0
2018-12-13T16:27:02.793Z,0
2018-12-13T16:28:12.739Z,0
2018-12-13T16:29:22.665Z,0
2018-12-13T16:30:32.537Z,0
2018-12-13T16:31:41.971Z,0
2018-12-13T16:32:51.917Z,0
2018-12-13T16:34:01.609Z,0